createdAt,value
2023-04-30T00:01:03.012Z,55.06
2023-04-30T00:03:29.945Z,55.31
2023-04-30T00:05:57.251Z,55.13
2023-04-30T00:08:24.156Z,55.32
2023-04-30T00:10:51.825Z,55.10
2023-04-30T00:13:19.125Z,55.38
2023-04-30T00:15:45.978Z,55.08
2023-04-30T00:18:12.770Z,55.22
2023-04-30T00:20:39.502Z,55.18
2023-04-30T00:23:06.229Z,55.54
2023-04-30T00:25:32.914Z,55.54
2023-04-30T00:27:59.561Z,55.16
2023-04-30T00:30:26.423Z,55.01
2023-04-30T00:32:53.279Z,54.71
2023-04-30T00:35:20.058Z,55.40
2023-04-30T00:37:47.691Z,55.96
2023-04-30T00:40:15.036Z,55.52
2023-04-30T00:42:41.767Z,55.45
2023-04-30T00:45:08.992Z,55.60
2023-04-30T00:47:35.781Z,55.82
2023-04-30T00:50:02.645Z,55.61
2023-04-30T00:52:29.719Z,55.45
2023-04-30T00:54:56.592Z,55.74
2023-04-30T00:57:23.648Z,55.31
2023-04-30T00:59:50.875Z,55.37
2023-04-30T01:02:18.842Z,55.60
2023-04-30T01:04:47.039Z,55.17
2023-04-30T01:07:13.916Z,55.14
2023-04-30T01:09:40.998Z,55.40
2023-04-30T01:12:21.301Z,55.19
2023-04-30T01:14:47.955Z,55.19
2023-04-30T01:17:23.971Z,55.43
2023-04-30T01:19:50.794Z,55.66
2023-04-30T01:22:35.492Z,55.63
2023-04-30T01:25:30.052Z,55.31
2023-04-30T01:28:16.679Z,55.75
2023-04-30T01:30:47.423Z,55.69
2023-04-30T01:33:14.202Z,55.67
2023-04-30T01:35:58.706Z,55.66
2023-04-30T01:38:33.170Z,55.22
2023-04-30T01:41:15.144Z,55.38
2023-04-30T01:44:19.732Z,55.38
2023-04-30T01:46:56.098Z,55.25
2023-04-30T01:49:44.104Z,55.28
2023-04-30T01:52:39.760Z,55.19
2023-04-30T01:55:24.375Z,55.41
2023-04-30T01:58:02.806Z,55.38
2023-04-30T02:00:30.993Z,55.84
2023-04-30T02:02:58.583Z,55.32
2023-04-30T02:05:25.566Z,55.35
2023-04-30T02:07:54.155Z,55.53
2023-04-30T02:10:23.065Z,55.74
2023-04-30T02:12:49.990Z,55.73
2023-04-30T02:15:17.219Z,55.36
2023-04-30T02:17:44.120Z,55.29
2023-04-30T02:20:11.658Z,55.82
2023-04-30T02:22:38.428Z,55.26
2023-04-30T02:25:05.643Z,55.69
2023-04-30T02:27:33.522Z,55.51
2023-04-30T02:30:01.056Z,55.72
2023-04-30T02:32:27.816Z,55.42
2023-04-30T02:34:54.702Z,55.49
2023-04-30T02:37:21.334Z,55.56
2023-04-30T02:39:48.167Z,55.45
2023-04-30T02:42:15.328Z,55.40
2023-04-30T02:44:42.588Z,55.69
2023-04-30T02:47:09.319Z,55.38
2023-04-30T02:49:36.460Z,55.36
2023-04-30T02:52:03.215Z,55.66
2023-04-30T02:54:29.970Z,55.88
2023-04-30T02:56:56.605Z,55.54
2023-04-30T02:59:23.345Z,55.63
2023-04-30T03:01:50.298Z,55.57
2023-04-30T03:04:17.131Z,56.33
2023-04-30T03:06:43.932Z,55.70
2023-04-30T03:09:11.088Z,56.25
2023-04-30T03:11:37.906Z,55.92
2023-04-30T03:14:07.749Z,55.84
2023-04-30T03:16:34.517Z,56.16
2023-04-30T03:19:01.504Z,55.91
2023-04-30T03:21:28.171Z,55.73
2023-04-30T03:23:54.890Z,55.84
2023-04-30T03:26:22.144Z,55.91
2023-04-30T03:28:49.405Z,55.76
2023-04-30T03:31:16.191Z,55.94
2023-04-30T03:33:43.230Z,56.04
2023-04-30T03:36:10.084Z,55.66
2023-04-30T03:38:36.707Z,56.07
2023-04-30T03:41:03.868Z,56.03
2023-04-30T03:43:30.735Z,56.23
2023-04-30T03:45:57.937Z,56.09
2023-04-30T03:48:25.500Z,56.48
2023-04-30T03:50:52.510Z,56.29
2023-04-30T03:53:19.216Z,56.28
2023-04-30T03:55:45.931Z,56.49
2023-04-30T03:58:13.217Z,56.85
2023-04-30T04:00:41.624Z,56.47
2023-04-30T04:03:08.659Z,56.67
2023-04-30T04:05:35.410Z,56.37
2023-04-30T04:08:02.138Z,56.99
2023-04-30T04:10:29.269Z,56.78
2023-04-30T04:12:55.994Z,56.79
2023-04-30T04:15:22.824Z,57.05
2023-04-30T04:17:49.573Z,56.88
2023-04-30T04:20:16.580Z,56.89
2023-04-30T04:22:44.097Z,57.34
2023-04-30T04:25:11.059Z,56.69
2023-04-30T04:27:38.800Z,56.94
2023-04-30T04:30:06.219Z,56.86
2023-04-30T04:32:33.093Z,57.09
2023-04-30T04:35:00.158Z,56.87
2023-04-30T04:37:27.036Z,56.61
2023-04-30T04:39:53.962Z,56.83
2023-04-30T04:42:21.288Z,56.40
2023-04-30T04:44:48.046Z,56.58
2023-04-30T04:47:20.000Z,56.30
2023-04-30T04:49:47.081Z,56.48
2023-04-30T04:52:15.567Z,56.50
2023-04-30T04:54:42.546Z,56.44
2023-04-30T04:57:09.233Z,56.17
2023-04-30T04:59:36.710Z,56.10
2023-04-30T05:02:03.474Z,56.39
2023-04-30T05:04:30.501Z,56.15
2023-04-30T05:06:57.268Z,55.81
2023-04-30T05:09:24.279Z,55.69
2023-04-30T05:11:51.059Z,55.98
2023-04-30T05:14:17.757Z,55.65
2023-04-30T05:16:45.295Z,55.46
2023-04-30T05:19:12.238Z,55.05
2023-04-30T05:21:42.116Z,55.35
2023-04-30T05:24:08.772Z,55.47
2023-04-30T05:26:35.803Z,55.05
2023-04-30T05:29:03.130Z,54.99
2023-04-30T05:31:29.972Z,55.26
2023-04-30T05:33:56.607Z,55.23
2023-04-30T05:36:23.489Z,54.69
2023-04-30T05:38:51.976Z,54.32
2023-04-30T05:41:18.951Z,54.79
2023-04-30T05:43:45.835Z,54.83
2023-04-30T05:46:12.663Z,53.98
2023-04-30T05:48:40.004Z,53.59
2023-04-30T05:51:07.182Z,53.70
2023-04-30T05:53:34.194Z,53.72
2023-04-30T05:56:01.179Z,53.38
2023-04-30T05:58:28.018Z,52.81
2023-04-30T06:00:54.855Z,52.98
2023-04-30T06:03:21.611Z,52.66
2023-04-30T06:05:48.439Z,52.46
2023-04-30T06:08:15.605Z,52.21
2023-04-30T06:10:42.463Z,52.18
2023-04-30T06:13:09.517Z,51.68
2023-04-30T06:15:36.279Z,51.66
2023-04-30T06:18:03.303Z,51.74
2023-04-30T06:20:30.110Z,51.51
2023-04-30T06:22:56.849Z,50.90
2023-04-30T06:25:23.686Z,50.24
2023-04-30T06:27:51.757Z,49.64
2023-04-30T06:30:18.414Z,49.63
2023-04-30T06:32:45.486Z,49.46
2023-04-30T06:35:12.175Z,49.15
2023-04-30T06:37:38.905Z,48.52
2023-04-30T06:40:06.609Z,47.56
2023-04-30T06:42:36.645Z,47.45
2023-04-30T06:45:04.203Z,46.99
2023-04-30T06:47:34.681Z,47.01
2023-04-30T06:50:01.975Z,46.99
2023-04-30T06:52:29.127Z,46.64
2023-04-30T06:54:55.894Z,46.49
2023-04-30T06:57:22.689Z,46.26
2023-04-30T06:59:49.364Z,46.43
2023-04-30T07:02:16.302Z,46.73
2023-04-30T07:04:43.055Z,46.68
2023-04-30T07:07:09.893Z,46.47
2023-04-30T07:09:37.068Z,46.81
2023-04-30T07:12:03.969Z,46.02
2023-04-30T07:14:30.829Z,45.96
2023-04-30T07:16:57.900Z,45.48
2023-04-30T07:19:26.985Z,45.42
2023-04-30T07:21:53.857Z,44.98
2023-04-30T07:24:20.696Z,44.94
2023-04-30T07:26:47.399Z,44.64
2023-04-30T07:29:14.035Z,43.74
2023-04-30T07:31:41.018Z,43.17
2023-04-30T07:34:08.823Z,42.57
2023-04-30T07:36:35.733Z,41.42
2023-04-30T07:39:02.580Z,40.94
2023-04-30T07:41:29.440Z,40.65
2023-04-30T07:43:56.289Z,41.08
2023-04-30T07:46:25.071Z,41.28
2023-04-30T07:48:51.733Z,42.65
2023-04-30T07:51:18.370Z,42.91
2023-04-30T07:53:45.590Z,43.67
2023-04-30T07:56:13.025Z,43.66
2023-04-30T07:58:39.739Z,43.80
2023-04-30T08:01:06.765Z,43.66
2023-04-30T08:03:33.682Z,43.74
2023-04-30T08:06:00.907Z,43.23
2023-04-30T08:08:27.693Z,43.15
2023-04-30T08:10:54.335Z,42.90
2023-04-30T08:13:21.014Z,41.33
2023-04-30T08:15:50.089Z,35.00
2023-04-30T08:18:16.781Z,29.01
2023-04-30T08:20:43.641Z,25.29
2023-04-30T08:23:10.810Z,22.57
2023-04-30T08:25:37.546Z,20.92
2023-04-30T08:28:04.358Z,19.63
2023-04-30T08:30:31.160Z,17.76
2023-04-30T08:32:58.019Z,16.89
2023-04-30T08:35:25.237Z,15.82
2023-04-30T08:37:51.917Z,15.33
2023-04-30T08:40:18.669Z,14.97
2023-04-30T08:42:50.433Z,16.38
2023-04-30T08:45:18.156Z,19.28
2023-04-30T08:47:45.481Z,20.80
2023-04-30T08:50:12.378Z,22.48
2023-04-30T08:52:40.235Z,24.08
2023-04-30T08:55:08.855Z,25.36
2023-04-30T08:57:37.410Z,25.74
2023-04-30T09:00:06.757Z,25.52
2023-04-30T09:02:34.728Z,21.60
2023-04-30T09:05:01.808Z,22.02
2023-04-30T09:07:33.687Z,23.88
2023-04-30T09:10:00.831Z,24.06
2023-04-30T09:12:27.835Z,23.82
2023-04-30T09:15:08.456Z,24.05
2023-04-30T09:17:35.342Z,24.72
2023-04-30T09:20:12.907Z,26.10
2023-04-30T09:22:41.582Z,26.79
2023-04-30T09:25:09.790Z,25.49
2023-04-30T09:27:36.581Z,21.90
2023-04-30T09:30:04.714Z,21.88
2023-04-30T09:32:31.717Z,22.62
2023-04-30T09:34:58.582Z,23.47
2023-04-30T09:37:36.476Z,24.37
2023-04-30T09:40:04.605Z,25.33
2023-04-30T09:42:31.435Z,25.51
2023-04-30T09:44:58.430Z,22.03
2023-04-30T09:47:31.154Z,18.97
2023-04-30T09:50:00.664Z,18.76
2023-04-30T09:52:27.393Z,20.40
2023-04-30T09:54:54.147Z,20.43
2023-04-30T09:57:24.348Z,20.78
2023-04-30T09:59:53.463Z,22.16
2023-04-30T10:02:23.484Z,22.43
2023-04-30T10:04:56.273Z,21.34
2023-04-30T10:07:26.323Z,22.55
2023-04-30T10:10:03.389Z,23.32
2023-04-30T10:12:40.729Z,23.47
2023-04-30T10:15:17.742Z,24.42
2023-04-30T10:17:50.631Z,25.14
2023-04-30T10:20:18.419Z,24.96
2023-04-30T10:22:47.461Z,24.34
2023-04-30T10:25:14.724Z,23.24
2023-04-30T10:27:42.661Z,23.46
2023-04-30T10:30:11.670Z,22.98
2023-04-30T10:33:00.470Z,24.15
2023-04-30T10:35:30.814Z,25.33
2023-04-30T10:38:13.066Z,25.50
2023-04-30T10:40:39.889Z,26.04
2023-04-30T10:43:06.894Z,25.38
2023-04-30T10:45:38.945Z,25.14
2023-04-30T10:48:07.210Z,24.27
2023-04-30T10:50:42.994Z,24.06
2023-04-30T10:53:18.292Z,23.75
2023-04-30T10:55:53.151Z,21.35
2023-04-30T10:58:28.008Z,21.09
2023-04-30T11:01:11.091Z,22.44
2023-04-30T11:03:40.394Z,23.16
2023-04-30T11:06:20.113Z,24.14
2023-04-30T11:08:47.282Z,25.70
2023-04-30T11:11:24.038Z,25.60
2023-04-30T11:14:01.708Z,25.42
2023-04-30T11:16:35.184Z,26.25
2023-04-30T11:19:13.435Z,27.10
2023-04-30T11:22:03.405Z,26.21
2023-04-30T11:25:05.140Z,25.99
2023-04-30T11:27:34.342Z,25.55
2023-04-30T11:30:03.265Z,25.35
2023-04-30T11:32:35.462Z,24.61
2023-04-30T11:35:06.586Z,24.75
2023-04-30T11:37:35.386Z,23.71
2023-04-30T11:40:11.301Z,22.71
2023-04-30T11:42:40.640Z,20.28
2023-04-30T11:45:12.216Z,20.20
2023-04-30T11:47:40.445Z,20.64
2023-04-30T11:50:09.213Z,21.08
2023-04-30T11:52:36.734Z,21.54
2023-04-30T11:55:21.629Z,22.26
2023-04-30T11:57:50.971Z,23.13
2023-04-30T12:00:20.536Z,22.92
2023-04-30T12:02:48.710Z,22.62
2023-04-30T12:05:26.897Z,21.79
2023-04-30T12:07:57.733Z,19.36
2023-04-30T12:10:26.948Z,16.63
2023-04-30T12:12:59.240Z,16.41
2023-04-30T12:15:27.744Z,16.87
2023-04-30T12:17:58.681Z,19.04
2023-04-30T12:20:28.589Z,20.45
2023-04-30T12:22:56.109Z,22.35
2023-04-30T12:25:23.623Z,23.29
2023-04-30T12:27:54.233Z,24.15
2023-04-30T12:30:23.058Z,23.80
2023-04-30T12:32:52.556Z,23.50
2023-04-30T12:35:21.150Z,23.16
2023-04-30T12:37:52.900Z,24.11
2023-04-30T12:40:27.427Z,25.06
2023-04-30T12:43:05.646Z,25.27
2023-04-30T12:45:54.649Z,24.81
2023-04-30T12:48:23.486Z,25.31
2023-04-30T12:51:00.207Z,25.19
2023-04-30T12:53:28.349Z,25.41
2023-04-30T12:56:17.462Z,25.96
2023-04-30T12:58:47.380Z,25.30
2023-04-30T13:01:20.614Z,25.16
2023-04-30T13:03:48.206Z,25.15
2023-04-30T13:06:15.396Z,25.03
2023-04-30T13:08:57.273Z,24.92
2023-04-30T13:11:26.448Z,25.45
2023-04-30T13:13:55.870Z,25.98
2023-04-30T13:16:24.418Z,25.98
2023-04-30T13:18:51.595Z,25.49
2023-04-30T13:21:18.648Z,24.71
2023-04-30T13:23:52.795Z,24.74
2023-04-30T13:26:21.501Z,24.37
2023-04-30T13:28:48.163Z,24.48
2023-04-30T13:31:15.055Z,23.67
2023-04-30T13:33:42.235Z,24.39
2023-04-30T13:36:08.885Z,24.54
2023-04-30T13:38:35.597Z,24.10
2023-04-30T13:41:02.318Z,23.69
2023-04-30T13:43:29.279Z,23.83
2023-04-30T13:45:56.071Z,24.17
2023-04-30T13:48:23.069Z,24.26
2023-04-30T13:50:49.867Z,24.73
2023-04-30T13:53:16.752Z,24.97
2023-04-30T13:55:43.491Z,25.22
2023-04-30T13:58:10.235Z,25.38
2023-04-30T14:00:37.175Z,25.50
2023-04-30T14:03:05.754Z,25.75
2023-04-30T14:05:34.729Z,25.36
2023-04-30T14:08:01.425Z,25.85
2023-04-30T14:10:28.022Z,25.55
2023-04-30T14:12:54.891Z,25.07
2023-04-30T14:15:22.237Z,25.30
2023-04-30T14:17:48.897Z,25.17
2023-04-30T14:20:16.315Z,25.27
2023-04-30T14:22:43.397Z,25.27
2023-04-30T14:25:10.474Z,24.98
2023-04-30T14:27:37.538Z,25.53
2023-04-30T14:30:05.075Z,25.28
2023-04-30T14:32:31.991Z,25.19
2023-04-30T14:34:58.854Z,24.78
2023-04-30T14:37:25.667Z,24.69
2023-04-30T14:39:52.762Z,24.86
2023-04-30T14:42:19.941Z,25.31
2023-04-30T14:44:46.707Z,25.37
2023-04-30T14:47:13.643Z,25.69
2023-04-30T14:49:40.833Z,26.38
2023-04-30T14:52:07.501Z,25.98
2023-04-30T14:54:34.565Z,25.75
2023-04-30T14:57:03.407Z,25.83
2023-04-30T14:59:30.347Z,26.29
2023-04-30T15:01:57.191Z,26.03
2023-04-30T15:04:23.961Z,26.05
2023-04-30T15:06:50.920Z,25.27
2023-04-30T15:09:17.873Z,24.89
2023-04-30T15:11:44.576Z,24.83
2023-04-30T15:14:11.734Z,24.78
2023-04-30T15:16:38.457Z,24.97
2023-04-30T15:19:05.221Z,25.45
2023-04-30T15:21:31.821Z,25.94
2023-04-30T15:23:58.513Z,26.21
2023-04-30T15:26:25.964Z,26.12
2023-04-30T15:28:52.703Z,25.99
2023-04-30T15:31:19.693Z,25.97
2023-04-30T15:33:46.336Z,26.14
2023-04-30T15:36:13.050Z,26.51
2023-04-30T15:38:39.700Z,26.06
2023-04-30T15:41:06.364Z,26.49
2023-04-30T15:43:33.075Z,26.33
2023-04-30T15:45:59.892Z,26.19
2023-04-30T15:48:26.781Z,26.68
2023-04-30T15:50:53.425Z,26.96
2023-04-30T15:53:20.097Z,26.40
2023-04-30T15:55:48.548Z,26.37
2023-04-30T15:58:16.181Z,26.64
2023-04-30T16:00:43.215Z,26.82
2023-04-30T16:03:09.962Z,26.88
2023-04-30T16:05:40.384Z,27.17
2023-04-30T16:08:10.699Z,26.88
2023-04-30T16:10:38.844Z,26.94
2023-04-30T16:13:05.780Z,27.21
2023-04-30T16:15:32.712Z,27.54
2023-04-30T16:17:59.715Z,27.15
2023-04-30T16:20:27.379Z,27.58
2023-04-30T16:22:54.715Z,27.41
2023-04-30T16:25:22.580Z,27.68
2023-04-30T16:27:49.815Z,27.61
2023-04-30T16:30:16.616Z,27.43
2023-04-30T16:32:44.292Z,27.79
2023-04-30T16:35:11.075Z,27.36
2023-04-30T16:37:37.709Z,27.60
2023-04-30T16:40:06.356Z,27.90
2023-04-30T16:42:33.935Z,28.17
2023-04-30T16:45:00.700Z,27.86
2023-04-30T16:47:27.509Z,27.96
2023-04-30T16:49:55.650Z,28.24
2023-04-30T16:52:22.510Z,27.99
2023-04-30T16:54:49.182Z,27.85
2023-04-30T16:57:16.077Z,28.11
2023-04-30T16:59:42.754Z,28.19
2023-04-30T17:02:09.908Z,28.06
2023-04-30T17:04:36.627Z,27.90
2023-04-30T17:07:03.836Z,28.23
2023-04-30T17:09:30.536Z,28.20
2023-04-30T17:11:58.424Z,28.50
2023-04-30T17:14:25.137Z,28.46
2023-04-30T17:16:51.716Z,28.63
2023-04-30T17:19:18.348Z,28.72
2023-04-30T17:21:45.020Z,28.85
2023-04-30T17:24:11.890Z,28.66
2023-04-30T17:26:38.646Z,28.72
2023-04-30T17:29:06.338Z,28.76
2023-04-30T17:31:33.609Z,28.66
2023-04-30T17:34:00.425Z,28.81
2023-04-30T17:36:30.425Z,29.22
2023-04-30T17:38:57.047Z,28.96
2023-04-30T17:41:24.281Z,29.34
2023-04-30T17:43:51.905Z,29.56
2023-04-30T17:46:19.225Z,29.17
2023-04-30T17:48:46.147Z,29.63
2023-04-30T17:51:13.259Z,29.85
2023-04-30T17:53:40.741Z,30.15
2023-04-30T17:56:08.865Z,30.26
2023-04-30T17:58:37.091Z,30.41
2023-04-30T18:01:05.493Z,30.37
2023-04-30T18:03:32.584Z,30.52
2023-04-30T18:05:59.470Z,30.78
2023-04-30T18:08:26.353Z,30.55
2023-04-30T18:10:53.250Z,31.05
2023-04-30T18:13:19.876Z,31.06
2023-04-30T18:15:46.940Z,30.88
2023-04-30T18:18:14.138Z,31.27
2023-04-30T18:20:40.886Z,31.24
2023-04-30T18:23:09.942Z,31.34
2023-04-30T18:25:37.267Z,31.82
2023-04-30T18:28:03.993Z,31.61
2023-04-30T18:30:31.638Z,31.80
2023-04-30T18:32:58.323Z,32.22
2023-04-30T18:35:25.046Z,32.39
2023-04-30T18:37:51.803Z,32.17
2023-04-30T18:40:19.155Z,32.67
2023-04-30T18:42:46.654Z,32.77
2023-04-30T18:45:15.403Z,32.79
2023-04-30T18:47:42.183Z,33.00
2023-04-30T18:50:13.344Z,32.91
2023-04-30T18:52:40.771Z,32.55
2023-04-30T18:55:08.814Z,33.08
2023-04-30T18:57:35.531Z,32.96
2023-04-30T19:00:02.453Z,33.11
2023-04-30T19:02:29.316Z,33.46
2023-04-30T19:04:56.244Z,33.78
2023-04-30T19:07:22.937Z,33.50
2023-04-30T19:09:51.824Z,33.54
2023-04-30T19:12:18.550Z,33.89
2023-04-30T19:14:45.837Z,34.08
2023-04-30T19:17:12.901Z,33.95
2023-04-30T19:19:39.983Z,34.33
2023-04-30T19:22:07.067Z,34.33
2023-04-30T19:24:33.869Z,34.99
2023-04-30T19:27:04.335Z,34.98
2023-04-30T19:29:31.681Z,34.97
2023-04-30T19:31:59.192Z,34.81
2023-04-30T19:34:28.981Z,35.36
2023-04-30T19:36:55.576Z,34.92
2023-04-30T19:39:22.363Z,35.32
2023-04-30T19:41:49.849Z,35.37
2023-04-30T19:44:17.793Z,35.53
2023-04-30T19:46:44.747Z,35.90
2023-04-30T19:49:11.494Z,35.97
2023-04-30T19:51:38.401Z,35.95
2023-04-30T19:54:05.544Z,36.62
2023-04-30T19:56:32.752Z,36.40
2023-04-30T19:58:59.401Z,36.06
2023-04-30T20:01:26.122Z,36.18
2023-04-30T20:03:53.106Z,36.15
2023-04-30T20:06:21.054Z,36.33
2023-04-30T20:08:48.290Z,35.82
2023-04-30T20:11:15.106Z,35.88
2023-04-30T20:13:41.753Z,35.96
2023-04-30T20:16:12.401Z,35.87
2023-04-30T20:18:39.385Z,36.11
2023-04-30T20:21:06.712Z,36.54
2023-04-30T20:23:34.291Z,36.35
2023-04-30T20:26:02.005Z,36.47
2023-04-30T20:28:28.800Z,36.43
2023-04-30T20:30:55.849Z,36.63
2023-04-30T20:33:22.630Z,36.86
2023-04-30T20:35:49.682Z,36.94
2023-04-30T20:38:19.665Z,37.09
2023-04-30T20:40:47.145Z,37.36
2023-04-30T20:43:14.115Z,37.57
2023-04-30T20:45:42.728Z,37.74
2023-04-30T20:48:09.636Z,37.74
2023-04-30T20:50:37.326Z,37.81
2023-04-30T20:53:04.272Z,38.11
2023-04-30T20:55:31.259Z,38.20
2023-04-30T20:57:58.068Z,38.65
2023-04-30T21:00:24.774Z,38.66
2023-04-30T21:02:53.949Z,39.04
2023-04-30T21:05:20.821Z,39.00
2023-04-30T21:07:47.529Z,39.39
2023-04-30T21:10:14.377Z,39.63
2023-04-30T21:12:41.230Z,39.63
2023-04-30T21:15:09.275Z,39.15
2023-04-30T21:17:36.232Z,39.82
2023-04-30T21:20:04.137Z,40.00
2023-04-30T21:22:31.827Z,39.59
2023-04-30T21:24:58.563Z,39.83
2023-04-30T21:27:25.242Z,39.63
2023-04-30T21:29:51.953Z,40.40
2023-04-30T21:32:18.700Z,40.67
2023-04-30T21:34:45.498Z,40.18
2023-04-30T21:37:12.222Z,40.56
2023-04-30T21:39:39.013Z,40.89
2023-04-30T21:42:05.742Z,41.09
2023-04-30T21:44:33.097Z,41.22
2023-04-30T21:47:00.058Z,41.09
2023-04-30T21:49:27.011Z,41.25
2023-04-30T21:51:53.937Z,41.29
2023-04-30T21:54:20.817Z,41.65
2023-04-30T21:56:47.516Z,41.75
2023-04-30T21:59:14.196Z,41.86
2023-04-30T22:01:40.921Z,42.33
2023-04-30T22:04:07.880Z,42.53
2023-04-30T22:06:34.783Z,42.70
2023-04-30T22:09:01.873Z,42.88
2023-04-30T22:11:29.223Z,42.78
2023-04-30T22:13:55.904Z,42.92
2023-04-30T22:16:22.931Z,43.37
2023-04-30T22:18:49.602Z,43.40
2023-04-30T22:21:16.296Z,42.92
2023-04-30T22:23:42.854Z,43.36
2023-04-30T22:26:11.272Z,43.68
2023-04-30T22:28:38.308Z,43.79
2023-04-30T22:31:05.510Z,43.85
2023-04-30T22:33:36.522Z,44.13
2023-04-30T22:36:06.534Z,44.31
2023-04-30T22:38:33.499Z,43.83
2023-04-30T22:41:00.693Z,43.64
2023-04-30T22:43:30.241Z,43.62
2023-04-30T22:45:58.435Z,43.77
2023-04-30T22:48:27.664Z,44.03
2023-04-30T22:50:55.479Z,43.47
2023-04-30T22:53:22.427Z,43.71
2023-04-30T22:55:49.678Z,43.89
2023-04-30T22:58:17.155Z,43.52
2023-04-30T23:00:43.802Z,44.27
2023-04-30T23:03:11.969Z,44.03
2023-04-30T23:05:38.874Z,44.34
2023-04-30T23:08:05.530Z,44.56
2023-04-30T23:10:32.278Z,44.03
2023-04-30T23:12:59.076Z,44.46
2023-04-30T23:15:26.391Z,44.78
2023-04-30T23:17:54.567Z,44.70
2023-04-30T23:20:22.629Z,45.11
2023-04-30T23:22:50.145Z,44.91
2023-04-30T23:25:17.130Z,45.11
2023-04-30T23:27:45.181Z,44.75
2023-04-30T23:30:12.310Z,45.06
2023-04-30T23:32:39.239Z,45.39
2023-04-30T23:35:07.943Z,45.63
2023-04-30T23:37:35.283Z,45.09
2023-04-30T23:40:02.283Z,45.55
2023-04-30T23:42:28.978Z,45.43
2023-04-30T23:44:55.775Z,45.44
2023-04-30T23:47:23.077Z,45.80
2023-04-30T23:49:49.792Z,45.94
2023-04-30T23:52:16.432Z,46.11
2023-04-30T23:54:44.432Z,46.23
2023-04-30T23:57:11.365Z,46.18
2023-04-30T23:59:38.117Z,46.42
